sensor_id;sensor_type;location;lat;lon;timestamp;P1;durP1;ratioP1;P2;durP2;ratioP2
50367;SDS011;36281;34.132;-118.018;2023-04-30T00:00:08;14.30;;;10.90;;
50367;SDS011;36281;34.132;-118.018;2023-04-30T00:02:38;12.40;;;10.07;;
50367;SDS011;36281;34.132;-118.018;2023-04-30T00:05:09;14.60;;;10.85;;
50367;SDS011;36281;34.132;-118.018;2023-04-30T00:07:38;13.60;;;11.68;;
50367;SDS011;36281;34.132;-118.018;2023-04-30T00:10:09;14.65;;;11.75;;
50367;SDS011;36281;34.132;-118.018;2023-04-30T00:12:38;12.75;;;10.90;;
50367;SDS011;36281;34.132;-118.018;2023-04-30T00:15:07;13.63;;;10.65;;
50367;SDS011;36281;34.132;-118.018;2023-04-30T00:17:38;12.18;;;10.13;;
50367;SDS011;36281;34.132;-118.018;2023-04-30T00:20:09;14.63;;;11.15;;
50367;SDS011;36281;34.132;-118.018;2023-04-30T00:22:39;16.75;;;11.75;;
50367;SDS011;36281;34.132;-118.018;2023-04-30T00:25:08;14.80;;;11.75;;
50367;SDS011;36281;34.132;-118.018;2023-04-30T00:27:37;14.70;;;11.63;;
50367;SDS011;36281;34.132;-118.018;2023-04-30T00:30:07;15.68;;;12.10;;
50367;SDS011;36281;34.132;-118.018;2023-04-30T00:32:36;18.52;;;12.55;;
50367;SDS011;36281;34.132;-118.018;2023-04-30T00:35:05;15.57;;;12.23;;
50367;SDS011;36281;34.132;-118.018;2023-04-30T00:37:36;14.85;;;12.07;;
50367;SDS011;36281;34.132;-118.018;2023-04-30T00:40:06;16.98;;;12.60;;
50367;SDS011;36281;34.132;-118.018;2023-04-30T00:42:36;15.00;;;11.43;;
50367;SDS011;36281;34.132;-118.018;2023-04-30T00:45:06;15.93;;;12.05;;
50367;SDS011;36281;34.132;-118.018;2023-04-30T00:47:35;16.23;;;12.00;;
50367;SDS011;36281;34.132;-118.018;2023-04-30T00:50:05;16.33;;;12.95;;
50367;SDS011;36281;34.132;-118.018;2023-04-30T00:52:38;15.32;;;11.80;;
50367;SDS011;36281;34.132;-118.018;2023-04-30T00:55:07;16.73;;;11.20;;
50367;SDS011;36281;34.132;-118.018;2023-04-30T00:57:38;15.02;;;11.63;;
50367;SDS011;36281;34.132;-118.018;2023-04-30T01:00:10;14.05;;;12.10;;
50367;SDS011;36281;34.132;-118.018;2023-04-30T01:02:40;16.63;;;12.23;;
50367;SDS011;36281;34.132;-118.018;2023-04-30T01:05:10;14.93;;;11.23;;
50367;SDS011;36281;34.132;-118.018;2023-04-30T01:07:41;13.85;;;12.20;;
50367;SDS011;36281;34.132;-118.018;2023-04-30T01:10:12;16.95;;;11.40;;
50367;SDS011;36281;34.132;-118.018;2023-04-30T01:12:45;12.90;;;10.82;;
50367;SDS011;36281;34.132;-118.018;2023-04-30T01:15:22;12.75;;;10.50;;
50367;SDS011;36281;34.132;-118.018;2023-04-30T01:17:58;11.48;;;9.55;;
50367;SDS011;36281;34.132;-118.018;2023-04-30T01:20:33;13.02;;;10.15;;
50367;SDS011;36281;34.132;-118.018;2023-04-30T01:23:10;11.85;;;9.25;;
50367;SDS011;36281;34.132;-118.018;2023-04-30T01:25:52;11.68;;;9.02;;
50367;SDS011;36281;34.132;-118.018;2023-04-30T01:28:39;11.40;;;9.32;;
50367;SDS011;36281;34.132;-118.018;2023-04-30T01:31:14;11.48;;;8.77;;
50367;SDS011;36281;34.132;-118.018;2023-04-30T01:33:46;10.25;;;8.52;;
50367;SDS011;36281;34.132;-118.018;2023-04-30T01:36:21;10.63;;;7.90;;
50367;SDS011;36281;34.132;-118.018;2023-04-30T01:39:04;8.98;;;8.07;;
50367;SDS011;36281;34.132;-118.018;2023-04-30T01:41:44;11.15;;;8.35;;
50367;SDS011;36281;34.132;-118.018;2023-04-30T01:44:33;7.70;;;6.90;;
50367;SDS011;36281;34.132;-118.018;2023-04-30T01:47:19;9.77;;;7.50;;
50367;SDS011;36281;34.132;-118.018;2023-04-30T01:50:00;11.70;;;8.25;;
50367;SDS011;36281;34.132;-118.018;2023-04-30T01:52:38;8.40;;;7.50;;
50367;SDS011;36281;34.132;-118.018;2023-04-30T01:55:13;8.05;;;7.18;;
50367;SDS011;36281;34.132;-118.018;2023-04-30T01:57:45;10.07;;;7.72;;
50367;SDS011;36281;34.132;-118.018;2023-04-30T02:00:25;12.20;;;7.95;;
50367;SDS011;36281;34.132;-118.018;2023-04-30T02:02:55;11.50;;;8.07;;
50367;SDS011;36281;34.132;-118.018;2023-04-30T02:05:24;11.73;;;8.88;;
50367;SDS011;36281;34.132;-118.018;2023-04-30T02:07:53;10.88;;;7.30;;
50367;SDS011;36281;34.132;-118.018;2023-04-30T02:10:23;10.10;;;8.23;;
50367;SDS011;36281;34.132;-118.018;2023-04-30T02:12:53;11.45;;;8.45;;
50367;SDS011;36281;34.132;-118.018;2023-04-30T02:15:22;11.82;;;8.23;;
50367;SDS011;36281;34.132;-118.018;2023-04-30T02:17:52;9.45;;;7.90;;
50367;SDS011;36281;34.132;-118.018;2023-04-30T02:20:22;10.00;;;6.75;;
50367;SDS011;36281;34.132;-118.018;2023-04-30T02:22:51;12.18;;;8.55;;
50367;SDS011;36281;34.132;-118.018;2023-04-30T02:25:20;10.85;;;8.23;;
50367;SDS011;36281;34.132;-118.018;2023-04-30T02:27:49;8.82;;;7.55;;
50367;SDS011;36281;34.132;-118.018;2023-04-30T02:30:18;10.07;;;7.18;;
50367;SDS011;36281;34.132;-118.018;2023-04-30T02:32:47;10.35;;;7.65;;
50367;SDS011;36281;34.132;-118.018;2023-04-30T02:35:18;8.40;;;7.25;;
50367;SDS011;36281;34.132;-118.018;2023-04-30T02:37:47;9.30;;;7.60;;
50367;SDS011;36281;34.132;-118.018;2023-04-30T02:40:16;9.48;;;7.88;;
50367;SDS011;36281;34.132;-118.018;2023-04-30T02:42:45;10.10;;;7.85;;
50367;SDS011;36281;34.132;-118.018;2023-04-30T02:45:15;9.07;;;7.68;;
50367;SDS011;36281;34.132;-118.018;2023-04-30T02:47:44;10.00;;;7.35;;
50367;SDS011;36281;34.132;-118.018;2023-04-30T02:50:14;11.35;;;7.85;;
50367;SDS011;36281;34.132;-118.018;2023-04-30T02:52:45;9.73;;;8.30;;
50367;SDS011;36281;34.132;-118.018;2023-04-30T02:55:14;8.98;;;7.93;;
50367;SDS011;36281;34.132;-118.018;2023-04-30T02:57:43;10.73;;;8.15;;
50367;SDS011;36281;34.132;-118.018;2023-04-30T03:00:12;10.27;;;7.70;;
50367;SDS011;36281;34.132;-118.018;2023-04-30T03:02:42;9.18;;;7.78;;
50367;SDS011;36281;34.132;-118.018;2023-04-30T03:05:11;10.65;;;8.52;;
50367;SDS011;36281;34.132;-118.018;2023-04-30T03:07:43;11.30;;;7.97;;
50367;SDS011;36281;34.132;-118.018;2023-04-30T03:10:14;11.68;;;8.27;;
50367;SDS011;36281;34.132;-118.018;2023-04-30T03:12:45;8.07;;;7.22;;
50367;SDS011;36281;34.132;-118.018;2023-04-30T03:15:14;8.27;;;7.40;;
50367;SDS011;36281;34.132;-118.018;2023-04-30T03:17:43;9.55;;;7.65;;
50367;SDS011;36281;34.132;-118.018;2023-04-30T03:20:12;12.25;;;8.10;;
50367;SDS011;36281;34.132;-118.018;2023-04-30T03:22:41;9.38;;;7.70;;
50367;SDS011;36281;34.132;-118.018;2023-04-30T03:25:12;9.25;;;7.95;;
50367;SDS011;36281;34.132;-118.018;2023-04-30T03:27:41;11.30;;;7.63;;
50367;SDS011;36281;34.132;-118.018;2023-04-30T03:30:10;10.13;;;8.07;;
50367;SDS011;36281;34.132;-118.018;2023-04-30T03:32:39;8.43;;;7.35;;
50367;SDS011;36281;34.132;-118.018;2023-04-30T03:35:08;13.00;;;7.85;;
50367;SDS011;36281;34.132;-118.018;2023-04-30T03:37:37;8.02;;;6.93;;
50367;SDS011;36281;34.132;-118.018;2023-04-30T03:40:07;10.02;;;7.50;;
50367;SDS011;36281;34.132;-118.018;2023-04-30T03:42:38;9.40;;;7.63;;
50367;SDS011;36281;34.132;-118.018;2023-04-30T03:45:07;10.30;;;7.53;;
50367;SDS011;36281;34.132;-118.018;2023-04-30T03:47:37;8.85;;;7.60;;
50367;SDS011;36281;34.132;-118.018;2023-04-30T03:50:06;8.70;;;7.38;;
50367;SDS011;36281;34.132;-118.018;2023-04-30T03:52:37;9.27;;;7.35;;
50367;SDS011;36281;34.132;-118.018;2023-04-30T03:55:06;9.75;;;6.88;;
50367;SDS011;36281;34.132;-118.018;2023-04-30T03:57:35;9.05;;;6.80;;
50367;SDS011;36281;34.132;-118.018;2023-04-30T04:00:08;8.88;;;7.40;;
50367;SDS011;36281;34.132;-118.018;2023-04-30T04:02:37;11.02;;;8.07;;
50367;SDS011;36281;34.132;-118.018;2023-04-30T04:05:07;9.10;;;7.57;;
50367;SDS011;36281;34.132;-118.018;2023-04-30T04:07:36;10.10;;;7.38;;
50367;SDS011;36281;34.132;-118.018;2023-04-30T04:10:05;10.07;;;7.63;;
50367;SDS011;36281;34.132;-118.018;2023-04-30T04:12:35;10.50;;;8.00;;
50367;SDS011;36281;34.132;-118.018;2023-04-30T04:15:06;10.10;;;7.95;;
50367;SDS011;36281;34.132;-118.018;2023-04-30T04:17:36;8.95;;;7.80;;
50367;SDS011;36281;34.132;-118.018;2023-04-30T04:20:06;8.10;;;7.03;;
50367;SDS011;36281;34.132;-118.018;2023-04-30T04:22:39;9.57;;;7.03;;
50367;SDS011;36281;34.132;-118.018;2023-04-30T04:25:09;9.82;;;7.45;;
50367;SDS011;36281;34.132;-118.018;2023-04-30T04:27:38;10.07;;;8.02;;
50367;SDS011;36281;34.132;-118.018;2023-04-30T04:30:09;9.10;;;7.78;;
50367;SDS011;36281;34.132;-118.018;2023-04-30T04:32:40;8.20;;;7.28;;
50367;SDS011;36281;34.132;-118.018;2023-04-30T04:35:16;8.85;;;7.70;;
50367;SDS011;36281;34.132;-118.018;2023-04-30T04:37:48;11.38;;;8.05;;
50367;SDS011;36281;34.132;-118.018;2023-04-30T04:40:17;10.25;;;8.48;;
50367;SDS011;36281;34.132;-118.018;2023-04-30T04:42:48;8.88;;;7.32;;
50367;SDS011;36281;34.132;-118.018;2023-04-30T04:45:20;9.63;;;7.47;;
50367;SDS011;36281;34.132;-118.018;2023-04-30T04:47:50;10.93;;;8.52;;
50367;SDS011;36281;34.132;-118.018;2023-04-30T04:50:19;10.75;;;8.13;;
50367;SDS011;36281;34.132;-118.018;2023-04-30T04:52:49;12.07;;;8.38;;
50367;SDS011;36281;34.132;-118.018;2023-04-30T04:55:18;10.60;;;8.18;;
50367;SDS011;36281;34.132;-118.018;2023-04-30T04:57:47;8.68;;;7.78;;
50367;SDS011;36281;34.132;-118.018;2023-04-30T05:00:16;8.95;;;7.53;;
50367;SDS011;36281;34.132;-118.018;2023-04-30T05:02:47;8.82;;;7.93;;
50367;SDS011;36281;34.132;-118.018;2023-04-30T05:05:17;11.20;;;7.75;;
50367;SDS011;36281;34.132;-118.018;2023-04-30T05:07:46;10.93;;;8.18;;
50367;SDS011;36281;34.132;-118.018;2023-04-30T05:10:18;11.88;;;8.30;;
50367;SDS011;36281;34.132;-118.018;2023-04-30T05:12:48;8.27;;;7.40;;
50367;SDS011;36281;34.132;-118.018;2023-04-30T05:15:17;10.30;;;8.02;;
50367;SDS011;36281;34.132;-118.018;2023-04-30T05:17:48;10.73;;;7.80;;
50367;SDS011;36281;34.132;-118.018;2023-04-30T05:20:17;9.88;;;8.02;;
50367;SDS011;36281;34.132;-118.018;2023-04-30T05:22:46;8.93;;;8.00;;
50367;SDS011;36281;34.132;-118.018;2023-04-30T05:25:15;11.73;;;8.88;;
50367;SDS011;36281;34.132;-118.018;2023-04-30T05:27:44;12.55;;;8.30;;
50367;SDS011;36281;34.132;-118.018;2023-04-30T05:30:13;11.23;;;8.60;;
50367;SDS011;36281;34.132;-118.018;2023-04-30T05:32:43;9.38;;;8.25;;
50367;SDS011;36281;34.132;-118.018;2023-04-30T05:35:20;11.65;;;8.82;;
50367;SDS011;36281;34.132;-118.018;2023-04-30T05:37:49;9.73;;;8.10;;
50367;SDS011;36281;34.132;-118.018;2023-04-30T05:40:19;9.35;;;8.00;;
50367;SDS011;36281;34.132;-118.018;2023-04-30T05:42:48;9.68;;;8.35;;
50367;SDS011;36281;34.132;-118.018;2023-04-30T05:45:17;16.65;;;9.38;;
50367;SDS011;36281;34.132;-118.018;2023-04-30T05:47:46;11.27;;;9.10;;
50367;SDS011;36281;34.132;-118.018;2023-04-30T05:50:15;11.77;;;9.45;;
50367;SDS011;36281;34.132;-118.018;2023-04-30T05:52:46;13.70;;;9.75;;
50367;SDS011;36281;34.132;-118.018;2023-04-30T05:55:15;11.63;;;8.93;;
50367;SDS011;36281;34.132;-118.018;2023-04-30T05:57:44;13.02;;;10.00;;
50367;SDS011;36281;34.132;-118.018;2023-04-30T06:00:13;12.13;;;9.20;;
50367;SDS011;36281;34.132;-118.018;2023-04-30T06:02:43;12.63;;;9.73;;
50367;SDS011;36281;34.132;-118.018;2023-04-30T06:05:12;11.88;;;9.52;;
50367;SDS011;36281;34.132;-118.018;2023-04-30T06:07:42;12.73;;;9.73;;
50367;SDS011;36281;34.132;-118.018;2023-04-30T06:10:13;12.82;;;9.52;;
50367;SDS011;36281;34.132;-118.018;2023-04-30T06:12:42;12.90;;;9.88;;
50367;SDS011;36281;34.132;-118.018;2023-04-30T06:15:11;12.45;;;9.82;;
50367;SDS011;36281;34.132;-118.018;2023-04-30T06:17:40;11.68;;;9.45;;
50367;SDS011;36281;34.132;-118.018;2023-04-30T06:20:10;11.32;;;8.82;;
50367;SDS011;36281;34.132;-118.018;2023-04-30T06:22:41;12.52;;;10.15;;
50367;SDS011;36281;34.132;-118.018;2023-04-30T06:25:10;13.25;;;9.98;;
50367;SDS011;36281;34.132;-118.018;2023-04-30T06:27:40;12.85;;;10.20;;
50367;SDS011;36281;34.132;-118.018;2023-04-30T06:30:10;16.50;;;10.57;;
50367;SDS011;36281;34.132;-118.018;2023-04-30T06:32:40;13.50;;;10.60;;
50367;SDS011;36281;34.132;-118.018;2023-04-30T06:35:09;13.52;;;10.55;;
50367;SDS011;36281;34.132;-118.018;2023-04-30T06:37:38;12.38;;;10.20;;
50367;SDS011;36281;34.132;-118.018;2023-04-30T06:40:07;14.82;;;10.90;;
50367;SDS011;36281;34.132;-118.018;2023-04-30T06:42:37;14.10;;;11.05;;
50367;SDS011;36281;34.132;-118.018;2023-04-30T06:45:08;13.10;;;10.25;;
50367;SDS011;36281;34.132;-118.018;2023-04-30T06:47:39;13.40;;;10.00;;
50367;SDS011;36281;34.132;-118.018;2023-04-30T06:50:09;14.27;;;10.25;;
50367;SDS011;36281;34.132;-118.018;2023-04-30T06:52:38;13.15;;;10.55;;
50367;SDS011;36281;34.132;-118.018;2023-04-30T06:55:07;13.73;;;10.85;;
50367;SDS011;36281;34.132;-118.018;2023-04-30T06:57:37;12.90;;;11.13;;
50367;SDS011;36281;34.132;-118.018;2023-04-30T07:00:08;14.82;;;11.80;;
50367;SDS011;36281;34.132;-118.018;2023-04-30T07:02:39;17.38;;;12.00;;
50367;SDS011;36281;34.132;-118.018;2023-04-30T07:05:08;15.15;;;12.20;;
50367;SDS011;36281;34.132;-118.018;2023-04-30T07:07:38;17.27;;;11.98;;
50367;SDS011;36281;34.132;-118.018;2023-04-30T07:10:08;15.15;;;11.27;;
50367;SDS011;36281;34.132;-118.018;2023-04-30T07:12:37;14.88;;;12.15;;
50367;SDS011;36281;34.132;-118.018;2023-04-30T07:15:08;17.75;;;11.73;;
50367;SDS011;36281;34.132;-118.018;2023-04-30T07:17:38;16.75;;;12.10;;
50367;SDS011;36281;34.132;-118.018;2023-04-30T07:20:08;17.63;;;13.48;;
50367;SDS011;36281;34.132;-118.018;2023-04-30T07:22:39;19.88;;;13.63;;
50367;SDS011;36281;34.132;-118.018;2023-04-30T07:25:11;17.40;;;13.40;;
50367;SDS011;36281;34.132;-118.018;2023-04-30T07:27:40;18.45;;;13.52;;
50367;SDS011;36281;34.132;-118.018;2023-04-30T07:30:11;19.13;;;13.90;;
50367;SDS011;36281;34.132;-118.018;2023-04-30T07:32:40;15.88;;;13.43;;
50367;SDS011;36281;34.132;-118.018;2023-04-30T07:35:10;17.98;;;13.90;;
50367;SDS011;36281;34.132;-118.018;2023-04-30T07:37:39;18.63;;;14.43;;
50367;SDS011;36281;34.132;-118.018;2023-04-30T07:40:10;19.15;;;13.07;;
50367;SDS011;36281;34.132;-118.018;2023-04-30T07:42:51;22.27;;;13.95;;
50367;SDS011;36281;34.132;-118.018;2023-04-30T07:45:21;18.42;;;13.73;;
50367;SDS011;36281;34.132;-118.018;2023-04-30T07:47:50;21.15;;;14.80;;
50367;SDS011;36281;34.132;-118.018;2023-04-30T07:50:19;20.63;;;14.95;;
50367;SDS011;36281;34.132;-118.018;2023-04-30T07:52:48;20.63;;;14.75;;
50367;SDS011;36281;34.132;-118.018;2023-04-30T07:55:18;21.05;;;14.85;;
50367;SDS011;36281;34.132;-118.018;2023-04-30T07:57:47;20.88;;;15.48;;
50367;SDS011;36281;34.132;-118.018;2023-04-30T08:00:16;20.13;;;15.95;;
50367;SDS011;36281;34.132;-118.018;2023-04-30T08:02:46;22.73;;;16.70;;
50367;SDS011;36281;34.132;-118.018;2023-04-30T08:05:17;20.67;;;14.85;;
50367;SDS011;36281;34.132;-118.018;2023-04-30T08:07:46;22.85;;;16.02;;
50367;SDS011;36281;34.132;-118.018;2023-04-30T08:10:15;23.55;;;16.67;;
50367;SDS011;36281;34.132;-118.018;2023-04-30T08:12:44;22.77;;;16.38;;
50367;SDS011;36281;34.132;-118.018;2023-04-30T08:15:13;26.77;;;17.63;;
50367;SDS011;36281;34.132;-118.018;2023-04-30T08:17:42;26.45;;;17.73;;
50367;SDS011;36281;34.132;-118.018;2023-04-30T08:20:13;25.42;;;16.83;;
50367;SDS011;36281;34.132;-118.018;2023-04-30T08:22:43;23.38;;;17.15;;
50367;SDS011;36281;34.132;-118.018;2023-04-30T08:25:12;29.88;;;18.88;;
50367;SDS011;36281;34.132;-118.018;2023-04-30T08:27:41;25.92;;;17.42;;
50367;SDS011;36281;34.132;-118.018;2023-04-30T08:30:10;24.08;;;18.20;;
50367;SDS011;36281;34.132;-118.018;2023-04-30T08:32:39;24.90;;;17.85;;
50367;SDS011;36281;34.132;-118.018;2023-04-30T08:35:09;26.13;;;18.35;;
50367;SDS011;36281;34.132;-118.018;2023-04-30T08:37:40;27.63;;;18.85;;
50367;SDS011;36281;34.132;-118.018;2023-04-30T08:40:09;33.03;;;20.40;;
50367;SDS011;36281;34.132;-118.018;2023-04-30T08:42:40;31.10;;;21.35;;
50367;SDS011;36281;34.132;-118.018;2023-04-30T08:45:14;34.22;;;22.23;;
50367;SDS011;36281;34.132;-118.018;2023-04-30T08:47:44;34.25;;;21.98;;
50367;SDS011;36281;34.132;-118.018;2023-04-30T08:50:15;33.85;;;22.25;;
50367;SDS011;36281;34.132;-118.018;2023-04-30T08:52:46;36.10;;;22.10;;
50367;SDS011;36281;34.132;-118.018;2023-04-30T08:55:15;32.80;;;23.45;;
50367;SDS011;36281;34.132;-118.018;2023-04-30T08:57:44;34.35;;;22.42;;
50367;SDS011;36281;34.132;-118.018;2023-04-30T09:00:14;31.95;;;22.42;;
50367;SDS011;36281;34.132;-118.018;2023-04-30T09:02:43;37.53;;;23.15;;
50367;SDS011;36281;34.132;-118.018;2023-04-30T09:05:13;36.88;;;23.75;;
50367;SDS011;36281;34.132;-118.018;2023-04-30T09:07:43;34.65;;;22.98;;
50367;SDS011;36281;34.132;-118.018;2023-04-30T09:10:18;36.72;;;23.33;;
50367;SDS011;36281;34.132;-118.018;2023-04-30T09:12:58;36.28;;;23.92;;
50367;SDS011;36281;34.132;-118.018;2023-04-30T09:15:28;36.35;;;23.50;;
50367;SDS011;36281;34.132;-118.018;2023-04-30T09:18:06;33.88;;;22.42;;
50367;SDS011;36281;34.132;-118.018;2023-04-30T09:20:37;36.38;;;24.30;;
50367;SDS011;36281;34.132;-118.018;2023-04-30T09:23:21;35.92;;;23.33;;
50367;SDS011;36281;34.132;-118.018;2023-04-30T09:25:53;39.47;;;23.80;;
50367;SDS011;36281;34.132;-118.018;2023-04-30T09:28:23;38.40;;;26.02;;
50367;SDS011;36281;34.132;-118.018;2023-04-30T09:30:55;39.85;;;25.67;;
50367;SDS011;36281;34.132;-118.018;2023-04-30T09:33:24;38.10;;;23.88;;
50367;SDS011;36281;34.132;-118.018;2023-04-30T09:35:53;36.05;;;24.98;;
50367;SDS011;36281;34.132;-118.018;2023-04-30T09:38:26;36.70;;;24.90;;
50367;SDS011;36281;34.132;-118.018;2023-04-30T09:40:58;35.97;;;24.02;;
50367;SDS011;36281;34.132;-118.018;2023-04-30T09:43:28;40.05;;;25.70;;
50367;SDS011;36281;34.132;-118.018;2023-04-30T09:45:58;41.67;;;26.52;;
50367;SDS011;36281;34.132;-118.018;2023-04-30T09:48:27;40.45;;;25.40;;
50367;SDS011;36281;34.132;-118.018;2023-04-30T09:50:56;38.45;;;25.25;;
50367;SDS011;36281;34.132;-118.018;2023-04-30T09:53:25;37.35;;;24.50;;
50367;SDS011;36281;34.132;-118.018;2023-04-30T09:55:55;36.25;;;23.77;;
50367;SDS011;36281;34.132;-118.018;2023-04-30T09:58:29;36.85;;;24.55;;
50367;SDS011;36281;34.132;-118.018;2023-04-30T10:01:03;37.78;;;25.17;;
50367;SDS011;36281;34.132;-118.018;2023-04-30T10:03:38;39.95;;;24.70;;
50367;SDS011;36281;34.132;-118.018;2023-04-30T10:06:11;37.33;;;24.23;;
50367;SDS011;36281;34.132;-118.018;2023-04-30T10:08:42;40.50;;;25.52;;
50367;SDS011;36281;34.132;-118.018;2023-04-30T10:11:17;42.10;;;26.77;;
50367;SDS011;36281;34.132;-118.018;2023-04-30T10:13:50;44.17;;;27.10;;
50367;SDS011;36281;34.132;-118.018;2023-04-30T10:16:25;39.50;;;26.08;;
50367;SDS011;36281;34.132;-118.018;2023-04-30T10:19:03;41.35;;;27.35;;
50367;SDS011;36281;34.132;-118.018;2023-04-30T10:21:39;42.58;;;27.23;;
50367;SDS011;36281;34.132;-118.018;2023-04-30T10:24:11;41.63;;;27.17;;
50367;SDS011;36281;34.132;-118.018;2023-04-30T10:26:42;40.35;;;26.02;;
50367;SDS011;36281;34.132;-118.018;2023-04-30T10:29:13;40.53;;;25.08;;
50367;SDS011;36281;34.132;-118.018;2023-04-30T10:31:44;39.15;;;24.98;;
50367;SDS011;36281;34.132;-118.018;2023-04-30T10:34:18;41.45;;;24.50;;
50367;SDS011;36281;34.132;-118.018;2023-04-30T10:36:56;40.03;;;25.48;;
50367;SDS011;36281;34.132;-118.018;2023-04-30T10:39:27;42.28;;;26.70;;
50367;SDS011;36281;34.132;-118.018;2023-04-30T10:42:02;42.00;;;25.80;;
50367;SDS011;36281;34.132;-118.018;2023-04-30T10:44:33;43.90;;;26.30;;
50367;SDS011;36281;34.132;-118.018;2023-04-30T10:47:05;40.70;;;26.02;;
50367;SDS011;36281;34.132;-118.018;2023-04-30T10:49:35;45.20;;;26.17;;
50367;SDS011;36281;34.132;-118.018;2023-04-30T10:52:05;41.88;;;25.63;;
50367;SDS011;36281;34.132;-118.018;2023-04-30T10:54:34;41.70;;;26.90;;
50367;SDS011;36281;34.132;-118.018;2023-04-30T10:57:10;41.10;;;26.15;;
50367;SDS011;36281;34.132;-118.018;2023-04-30T10:59:49;44.17;;;25.92;;
50367;SDS011;36281;34.132;-118.018;2023-04-30T11:02:20;43.50;;;26.25;;
50367;SDS011;36281;34.132;-118.018;2023-04-30T11:05:08;43.50;;;26.13;;
50367;SDS011;36281;34.132;-118.018;2023-04-30T11:07:45;44.78;;;26.70;;
50367;SDS011;36281;34.132;-118.018;2023-04-30T11:10:18;48.40;;;27.55;;
50367;SDS011;36281;34.132;-118.018;2023-04-30T11:12:52;45.33;;;28.13;;
50367;SDS011;36281;34.132;-118.018;2023-04-30T11:15:23;48.78;;;28.23;;
50367;SDS011;36281;34.132;-118.018;2023-04-30T11:17:55;41.70;;;26.67;;
50367;SDS011;36281;34.132;-118.018;2023-04-30T11:20:28;44.97;;;27.83;;
50367;SDS011;36281;34.132;-118.018;2023-04-30T11:26:04;41.92;;;25.58;;
50367;SDS011;36281;34.132;-118.018;2023-04-30T11:28:36;46.95;;;26.90;;
50367;SDS011;36281;34.132;-118.018;2023-04-30T11:31:05;46.78;;;28.85;;
50367;SDS011;36281;34.132;-118.018;2023-04-30T11:33:35;47.42;;;28.98;;
50367;SDS011;36281;34.132;-118.018;2023-04-30T11:36:04;45.80;;;28.15;;
50367;SDS011;36281;34.132;-118.018;2023-04-30T11:38:34;46.13;;;27.58;;
50367;SDS011;36281;34.132;-118.018;2023-04-30T11:41:04;50.13;;;28.92;;
50367;SDS011;36281;34.132;-118.018;2023-04-30T11:43:33;47.15;;;29.25;;
50367;SDS011;36281;34.132;-118.018;2023-04-30T11:46:05;50.35;;;29.17;;
50367;SDS011;36281;34.132;-118.018;2023-04-30T11:48:36;46.65;;;28.52;;
50367;SDS011;36281;34.132;-118.018;2023-04-30T11:51:13;48.38;;;28.63;;
50367;SDS011;36281;34.132;-118.018;2023-04-30T11:53:44;47.78;;;28.25;;
50367;SDS011;36281;34.132;-118.018;2023-04-30T11:56:16;46.03;;;29.27;;
50367;SDS011;36281;34.132;-118.018;2023-04-30T11:58:47;47.58;;;28.25;;
50367;SDS011;36281;34.132;-118.018;2023-04-30T12:01:19;43.67;;;27.60;;
50367;SDS011;36281;34.132;-118.018;2023-04-30T12:03:49;47.22;;;28.42;;
50367;SDS011;36281;34.132;-118.018;2023-04-30T12:06:23;43.92;;;28.00;;
50367;SDS011;36281;34.132;-118.018;2023-04-30T12:08:54;44.13;;;27.42;;
50367;SDS011;36281;34.132;-118.018;2023-04-30T12:11:25;45.05;;;28.10;;
50367;SDS011;36281;34.132;-118.018;2023-04-30T12:13:56;48.58;;;29.42;;
50367;SDS011;36281;34.132;-118.018;2023-04-30T12:16:39;47.10;;;28.95;;
50367;SDS011;36281;34.132;-118.018;2023-04-30T12:19:12;46.47;;;27.73;;
50367;SDS011;36281;34.132;-118.018;2023-04-30T12:21:41;45.55;;;27.60;;
50367;SDS011;36281;34.132;-118.018;2023-04-30T12:24:13;48.97;;;28.92;;
50367;SDS011;36281;34.132;-118.018;2023-04-30T12:26:43;47.88;;;28.33;;
50367;SDS011;36281;34.132;-118.018;2023-04-30T12:29:13;44.60;;;28.05;;
50367;SDS011;36281;34.132;-118.018;2023-04-30T12:31:47;37.03;;;24.70;;
50367;SDS011;36281;34.132;-118.018;2023-04-30T12:34:20;37.92;;;24.02;;
50367;SDS011;36281;34.132;-118.018;2023-04-30T12:36:56;42.35;;;25.58;;
50367;SDS011;36281;34.132;-118.018;2023-04-30T12:39:25;38.50;;;24.50;;
50367;SDS011;36281;34.132;-118.018;2023-04-30T12:42:01;44.60;;;26.03;;
50367;SDS011;36281;34.132;-118.018;2023-04-30T12:44:31;41.78;;;25.48;;
50367;SDS011;36281;34.132;-118.018;2023-04-30T12:47:12;41.25;;;24.70;;
50367;SDS011;36281;34.132;-118.018;2023-04-30T12:49:42;41.42;;;24.85;;
50367;SDS011;36281;34.132;-118.018;2023-04-30T12:52:13;40.60;;;25.50;;
50367;SDS011;36281;34.132;-118.018;2023-04-30T12:54:42;40.13;;;25.88;;
50367;SDS011;36281;34.132;-118.018;2023-04-30T12:57:12;38.92;;;24.33;;
50367;SDS011;36281;34.132;-118.018;2023-04-30T12:59:55;38.67;;;24.40;;
50367;SDS011;36281;34.132;-118.018;2023-04-30T13:02:30;42.53;;;25.13;;
50367;SDS011;36281;34.132;-118.018;2023-04-30T13:04:59;42.35;;;25.17;;
50367;SDS011;36281;34.132;-118.018;2023-04-30T13:07:35;40.53;;;24.42;;
50367;SDS011;36281;34.132;-118.018;2023-04-30T13:10:06;36.33;;;23.75;;
50367;SDS011;36281;34.132;-118.018;2023-04-30T13:12:36;41.60;;;24.65;;
50367;SDS011;36281;34.132;-118.018;2023-04-30T13:15:05;43.03;;;26.60;;
50367;SDS011;36281;34.132;-118.018;2023-04-30T13:17:36;44.55;;;26.20;;
50367;SDS011;36281;34.132;-118.018;2023-04-30T13:20:06;42.47;;;25.67;;
50367;SDS011;36281;34.132;-118.018;2023-04-30T13:22:36;43.60;;;26.25;;
50367;SDS011;36281;34.132;-118.018;2023-04-30T13:25:06;43.70;;;25.80;;
50367;SDS011;36281;34.132;-118.018;2023-04-30T13:27:35;47.17;;;27.80;;
50367;SDS011;36281;34.132;-118.018;2023-04-30T13:30:05;44.05;;;26.85;;
50367;SDS011;36281;34.132;-118.018;2023-04-30T13:32:36;46.42;;;29.02;;
50367;SDS011;36281;34.132;-118.018;2023-04-30T13:35:06;47.75;;;26.30;;
50367;SDS011;36281;34.132;-118.018;2023-04-30T13:37:36;45.75;;;26.05;;
50367;SDS011;36281;34.132;-118.018;2023-04-30T13:40:06;46.72;;;26.55;;
50367;SDS011;36281;34.132;-118.018;2023-04-30T13:42:36;45.08;;;26.40;;
50367;SDS011;36281;34.132;-118.018;2023-04-30T13:45:06;44.40;;;26.90;;
50367;SDS011;36281;34.132;-118.018;2023-04-30T13:47:38;44.08;;;26.60;;
50367;SDS011;36281;34.132;-118.018;2023-04-30T13:50:07;46.85;;;26.75;;
50367;SDS011;36281;34.132;-118.018;2023-04-30T13:52:37;44.20;;;26.75;;
50367;SDS011;36281;34.132;-118.018;2023-04-30T13:55:07;45.53;;;26.38;;
50367;SDS011;36281;34.132;-118.018;2023-04-30T13:57:36;43.55;;;26.45;;
50367;SDS011;36281;34.132;-118.018;2023-04-30T14:00:06;48.30;;;27.38;;
50367;SDS011;36281;34.132;-118.018;2023-04-30T14:02:38;46.83;;;28.13;;
50367;SDS011;36281;34.132;-118.018;2023-04-30T14:05:07;43.58;;;25.55;;
50367;SDS011;36281;34.132;-118.018;2023-04-30T14:07:37;43.25;;;24.88;;
50367;SDS011;36281;34.132;-118.018;2023-04-30T14:10:06;45.90;;;27.38;;
50367;SDS011;36281;34.132;-118.018;2023-04-30T14:12:36;42.75;;;26.08;;
50367;SDS011;36281;34.132;-118.018;2023-04-30T14:15:05;43.25;;;26.20;;